• Join FlightAware (Why Join?)
  • Login
  • US Flag 
11:56PM EDT


 

Airport Tracker/Info


-or-


 

Live Flight TrackerFlight Track Log ✈ N503LM ✈ 12-Oct-2013 ✈ KHOU - KCRP

Flight Track Log - Related Links

Times and Time Zones

All times are in EDT time to prevent confusion due to time zone crossing. See the N503LM flight status page for this flight to view local times or setup timezone preferences in your user account.

Time Position Orientation Groundspeed Altitude Reporting Facility
EDT Latitude Longitude Course Direction KTS MPH feet Rate Location/Type
04:28PM 29.5492 -95.6572 183° South 188 216 2,600  Level Houston Center
04:29PM 29.5125 -95.6803 209° Southwest 190 219 3,500 780 Climbing Houston Center
04:29PM 29.4997 -95.6894 212° Southwest 195 224 3,500 180 Level Houston Center
04:30PM 29.4908 -95.7303 256° West 198 228 3,700 300 Climbing Houston Center
04:30PM 29.4894 -95.7411 262° West 196 226 3,800 1,320 Climbing Houston Center
04:31PM 29.4625 -95.7756 228° Southwest 190 219 5,100 1,620 Climbing Houston Center
04:31PM 29.4533 -95.7814 209° Southwest 178 205 5,500 2,100 Climbing Houston Center
04:32PM 29.4225 -95.8069 216° Southwest 178 205 7,300 2,220 Climbing Houston Center
04:32PM 29.4056 -95.8133 198° South 186 214 8,000 1,620 Climbing Houston Center
04:33PM 29.3703 -95.8156 183° South 190 219 9,000 840 Climbing Houston Center
04:33PM 29.3433 -95.8203 189° South 238 274 9,000  Level Houston Center
04:34PM 29.3025 -95.8242 185° South 230 265 9,000 180 Level Houston Center
04:35PM 29.2261 -95.8308 184° South 263 303 9,400 1,200 Climbing Houston Center
04:36PM 29.1592 -95.8417 188° South 251 289 11,500 2,220 Climbing Houston Center
04:37PM 29.1081 -95.8939 222° Southwest 208 239 14,000 2,100 Climbing Houston Center
04:38PM 29.0686 -95.9433 228° Southwest 209 241 15,900 900 Climbing Houston Center
04:39PM 29.0283 -95.9903 226° Southwest 218 251 15,900  Level Houston Center
04:40PM 28.9742 -96.0564 227° Southwest 270 311 16,000  Climbing Houston Center
04:41PM 28.9203 -96.1200 226° Southwest 278 320 16,000  Level Houston Center
04:42PM 28.8536 -96.1989 226° Southwest 285 328 16,000  Level Houston Center
04:43PM 28.7978 -96.2658 226° Southwest 288 331 16,000  Level Houston Center
04:44PM 28.7422 -96.3322 226° Southwest 288 331 16,000  Level Houston Center
04:45PM 28.6861 -96.3961 225° Southwest 287 330 16,000  Level Houston Center
04:46PM 28.6306 -96.4619 226° Southwest 289 333 16,000  Level Houston Center
04:47PM 28.5747 -96.5289 226° Southwest 290 334 16,000  Level Houston Center
04:48PM 28.5172 -96.5944 225° Southwest 292 336 16,000 -240 Level Houston Center
04:49PM 28.4617 -96.6614 227° Southwest 291 335 15,600 -1,080 Descending Houston Center
04:50PM 28.4114 -96.7217 227° Southwest 301 346 14,200 -1,860 Descending Houston Center
04:50PM 28.3906 -96.7436 223° Southwest 299 344 13,700 -1,560 Descending Houston Center
04:51PM 28.3497 -96.7925 227° Southwest 303 349 12,500 -1,500 Descending Houston Center
04:51PM 28.3350 -96.8136 232° Southwest 299 344 12,200 -1,020 Descending Houston Center
04:52PM 28.3017 -96.8708 237° Southwest 288 331 11,500 -900 Descending Houston Center
04:52PM 28.2892 -96.8878 230° Southwest 289 333 11,300 -1,020 Descending Houston Center
04:53PM 28.2514 -96.9469 234° Southwest 287 330 10,500 -1,020 Descending Houston Center
04:53PM 28.2417 -96.9606 231° Southwest 287 330 10,300 -900 Descending Houston Center
04:54PM 28.2044 -97.0178 234° Southwest 291 335 9,600 -900 Descending Houston Center
04:54PM 28.1925 -97.0347 231° Southwest 292 336 9,400 -900 Descending Houston Center
04:55PM 28.1542 -97.0939 234° Southwest 291 335 8,700 -900 Descending Houston Center
04:55PM 28.1458 -97.1081 236° Southwest 288 331 8,500 -960 Descending Houston Center
04:56PM 28.0967 -97.1828 233° Southwest 285 328 7,600 -900 Descending Houston Center
04:56PM 28.0983 -97.1806 50° Northeast 287 330 7,600 -780 Level Houston Center
04:57PM 28.0514 -97.2517 233° Southwest 284 327 6,700 -1,020 Descending Houston Center
04:58PM 28.0083 -97.3186 234° Southwest 273 314 5,800 -1,080 Descending Houston Center
04:58PM 27.9978 -97.3347 233° Southwest 276 318 5,600 -840 Descending Houston Center
04:59PM 27.9650 -97.3839 233° Southwest 270 311 5,000 -900 Descending Houston Center
04:59PM 27.9522 -97.4033 233° Southwest 274 315 4,700 -1,200 Descending Houston Center
05:00PM 27.8986 -97.4706 228° Southwest 271 312 3,400 -1,560 Descending Houston Center
05:01PM 27.8611 -97.4928 208° Southwest 245 282 2,100 -1,200 Descending Houston Center
05:02PM 27.8225 -97.5267 218° Southwest 135 155 1,400 -720 Descending Houston Center
05:03PM 27.7958 -97.5325 191° South 92 106 800 -660 Descending Houston Center
05:05PM 27.7667 -97.5000 204° Southwest  Level FlightAware Approximate
05:12PM 27.7704 -97.5012 204° Southwest  Level Estimated
05:13PM 27.7667 -97.5000 204° Southwest  Level FlightAware Approximate
05:14PM 27.7704 -97.5012 204° Southwest  Level Estimated
05:15PM 27.7667 -97.5000 204° Southwest  Level FlightAware Approximate
05:16PM 27.7704 -97.5012 204° Southwest  Level Estimated
05:17PM 27.7667 -97.5000 204° Southwest  Level FlightAware Approximate
05:18PM 27.7704 -97.5012 204° Southwest  Level Estimated
05:19PM 27.7667 -97.5000 204° Southwest  Level FlightAware Approximate
05:20PM 27.7704 -97.5012 204° Southwest  Level Estimated
05:21PM 27.7667 -97.5000 204° Southwest  Level FlightAware Approximate
05:22PM 27.7704 -97.5012 204° Southwest  Level Estimated